Main page
METAR-TAF:

METAR-TAF

Airports :

Kosrae International Airport

Kosrae, Micronesia

latitude: 05-21N, longitude: 162-57E, elevation: 3 m

METAR: missing

Time: 20:51 (09:51 UTC)

Forecast

The report was made 10 hours and 17 minutes ago, at 23:34 UTC
Forecast valid from 18 at 00 UTC to 18 at 24 UTC
Wind 10 kt from the East
Visibility: 10 km
Scattered clouds at a height of 2000 ft
Scattered clouds at a height of 6000 ft
showers in vicinity

TAF: PTSA 172334Z 1800/1824 08010KT P6SM VCSH SCT020 SCT060

Weather observations and forecasts of more than 4000 airports (METAR and TAF reports).

The available stations are represented by yellow and red dots on the map.

Hover mouse over dot to see the name of the station.

Then click to see weather observations and forecasts.

To change the map : click on the green buttons with a black cross to zoom in, on the green button with a dash to zoom out, or on the green arrows for adjacent maps.


METAR-TAF: